Time;durP1;ratioP1;P1;durP2;ratioP2;P2;SDS_P1;SDS_P2;PMS_P1;PMS_P2;Temp;Humidity;BMP_temperature;BMP_pressure;BME280_temperature;BME280_humidity;BME280_pressure;Samples;Min_cycle;Max_cycle;Signal;HPM_P1;HPM_P2
2022/02/09 00:00:19;;;;;;;5.38;0.90;;;24.80;99.90;;;;;;5023065;28;20363;-64
2022/02/09 00:03:04;;;;;;;4.22;1.13;;;24.70;99.90;;;;;;5022894;28;20034;-64
2022/02/09 00:05:47;;;;;;;4.70;0.80;;;24.90;99.90;;;;;;5025758;28;20040;-65
2022/02/09 00:08:15;;;;;;;3.75;0.90;;;25.10;99.90;;;;;;5014685;28;20033;-64
2022/02/09 00:10:48;;;;;;;6.88;0.98;;;25.00;99.90;;;;;;5026795;28;20091;-65
2022/02/09 00:16:51;;;;;;;3.60;0.82;;;25.30;99.90;;;;;;4920269;29;20054;-64
2022/02/09 00:19:19;;;;;;;7.97;1.27;;;25.60;99.90;;;;;;5011732;28;20038;-64
2022/02/09 00:24:38;;;;;;;3.75;0.98;;;25.80;99.90;;;;;;5013733;28;20018;-64
2022/02/09 00:38:36;;;;;;;3.75;0.75;;;26.40;99.90;;;;;;5007339;28;20394;-64
2022/02/09 01:11:35;;;;;;;2.92;0.73;;;27.60;99.90;;;;;;5021164;28;20052;-65
2022/02/09 01:57:16;;;;;;;3.72;0.30;;;29.30;96.20;;;;;;5022133;28;20052;-65
2022/02/09 01:59:45;;;;;;;1.77;0.75;;;29.10;95.50;;;;;;5010701;28;20450;-65
2022/02/09 02:02:13;;;;;;;2.50;0.22;;;29.20;94.20;;;;;;5013126;28;20022;-65
2022/02/09 02:04:45;;;;;;;7.35;0.75;;;29.40;96.20;;;;;;5002470;28;20129;-65
2022/02/09 02:07:29;;;;;;;0.73;0.30;;;29.60;94.90;;;;;;5011713;28;20022;-66
2022/02/09 02:10:04;;;;;;;2.92;0.25;;;29.50;94.20;;;;;;4987544;28;20034;-65
2022/02/09 02:12:35;;;;;;;2.58;0.40;;;29.70;95.10;;;;;;5009022;28;20117;-66
2022/02/09 02:15:39;;;;;;;1.30;0.30;;;29.30;94.70;;;;;;5022701;28;20022;-65
2022/02/09 02:18:00;;;;;;;5.53;0.40;;;29.50;94.20;;;;;;5021857;28;20111;-64
2022/02/09 02:20:41;;;;;;;3.88;0.40;;;29.90;95.80;;;;;;5024196;28;20045;-64
2022/02/09 02:31:34;;;;;;;;;;;29.80;93.50;;;;;;5009557;28;20433;-65
2022/02/09 02:36:57;;;;;;;1.58;0.10;;;29.80;91.90;;;;;;5010348;28;20049;-65
2022/02/09 03:14:42;;;;;;;5.32;1.10;;;30.70;91.10;;;;;;5028046;28;20102;-64
2022/02/09 03:17:16;;;;;;;3.15;0.88;;;30.50;96.80;;;;;;5024842;28;20443;-65
2022/02/09 03:20:03;;;;;;;3.70;0.63;;;30.20;99.10;;;;;;5015925;28;20028;-64
2022/02/09 03:22:49;;;;;;;6.65;1.23;;;29.50;99.90;;;;;;5021733;28;20088;-64
2022/02/09 03:25:37;;;;;;;4.18;1.30;;;28.70;99.90;;;;;;4995771;28;20029;-65
2022/02/09 03:44:35;;;;;;;7.05;1.00;;;28.20;99.90;;;;;;5025904;28;20045;-65
2022/02/09 03:57:46;;;;;;;4.40;1.10;;;27.50;99.90;;;;;;5027334;28;20038;-64
2022/02/09 04:00:17;;;;;;;3.42;1.02;;;27.20;99.90;;;;;;5009257;28;20053;-64
2022/02/09 04:02:47;;;;;;;5.47;1.02;;;27.10;99.90;;;;;;5009274;28;20044;-65
2022/02/09 04:05:17;;;;;;;5.93;0.80;;;27.10;99.90;;;;;;5021023;28;20093;-65
2022/02/09 04:07:45;;;;;;;4.38;0.60;;;27.10;99.90;;;;;;5025410;28;20025;-64
2022/02/09 04:10:19;;;;;;;8.05;0.70;;;27.20;99.90;;;;;;5021136;28;20107;-64
2022/02/09 04:13:03;;;;;;;7.22;0.70;;;27.30;99.90;;;;;;5024640;28;20037;-64
2022/02/09 04:38:01;;;;;;;3.58;0.70;;;27.90;99.90;;;;;;5025189;28;20057;-64
2022/02/09 04:40:07;;;;;;;2.63;0.47;;;28.00;99.40;;;;;;5008429;28;20518;-64
2022/02/09 04:42:45;;;;;;;1.90;0.50;;;28.00;99.80;;;;;;5017245;28;20026;-64
2022/02/09 04:50:37;;;;;;;3.28;0.57;;;28.00;98.70;;;;;;5024703;28;20041;-64
2022/02/09 04:56:01;;;;;;;4.63;0.68;;;27.80;98.20;;;;;;5018129;28;20102;-65
2022/02/09 04:58:47;;;;;;;3.83;0.77;;;28.00;98.20;;;;;;5025516;28;20090;-64
2022/02/09 05:23:23;;;;;;;4.57;0.47;;;27.80;97.70;;;;;;5026317;28;20054;-63
2022/02/09 05:26:03;;;;;;;2.78;0.50;;;27.90;97.90;;;;;;5028098;28;20053;-63
2022/02/09 05:28:30;;;;;;;5.60;0.47;;;27.90;97.40;;;;;;5027385;28;20033;-63
2022/02/09 05:30:57;;;;;;;2.97;0.90;;;28.10;97.00;;;;;;5022524;28;20089;-64
2022/02/09 05:33:25;;;;;;;2.97;0.50;;;28.20;96.40;;;;;;5024977;28;20057;-64
2022/02/09 05:35:53;;;;;;;3.13;0.55;;;28.20;96.00;;;;;;5015137;28;20505;-63
2022/02/09 05:38:20;;;;;;;4.60;0.50;;;28.20;97.20;;;;;;5024591;28;20030;-63
2022/02/09 05:40:48;;;;;;;3.20;0.50;;;28.20;97.40;;;;;;5023290;28;20050;-64
2022/02/09 05:43:16;;;;;;;4.03;0.75;;;28.20;98.20;;;;;;5018365;28;20057;-64
2022/02/09 05:54:23;;;;;;;1.60;0.40;;;28.00;98.40;;;;;;5017480;28;20038;-64
2022/02/09 05:56:34;;;;;;;5.07;0.85;;;27.90;98.20;;;;;;5011214;28;20030;-65
2022/02/09 05:59:45;;;;;;;6.75;0.50;;;27.90;99.60;;;;;;5012362;28;20038;-66
2022/02/09 06:01:56;;;;;;;3.67;0.70;;;28.00;99.90;;;;;;5015967;28;20046;-65
2022/02/09 06:04:25;;;;;;;3.10;0.60;;;28.00;99.90;;;;;;5014993;28;20030;-64
2022/02/09 06:06:59;;;;;;;2.50;0.40;;;27.90;98.20;;;;;;5006051;28;20053;-65
2022/02/09 06:09:27;;;;;;;;;;;27.90;98.20;;;;;;5019049;28;20076;-66
2022/02/09 06:12:09;;;;;;;5.53;0.70;;;28.10;97.90;;;;;;5012070;28;19913;-66
2022/02/09 06:20:15;;;;;;;1.80;0.60;;;28.10;98.70;;;;;;5008114;28;20041;-65
2022/02/09 06:22:42;;;;;;;1.85;0.77;;;28.10;99.60;;;;;;5014931;28;20033;-65
2022/02/09 06:25:10;;;;;;;5.72;0.77;;;28.00;99.90;;;;;;5027789;28;20191;-65
2022/02/09 06:27:37;;;;;;;1.15;0.40;;;27.90;99.90;;;;;;5014983;28;20068;-65
2022/02/09 06:30:04;;;;;;;2.03;0.52;;;27.90;99.90;;;;;;5016998;28;20025;-65
2022/02/09 06:32:32;;;;;;;4.32;0.55;;;27.60;99.90;;;;;;5018828;28;20109;-65
2022/02/09 06:35:00;;;;;;;4.57;0.90;;;27.50;99.90;;;;;;5001754;28;20025;-65
2022/02/09 06:37:49;;;;;;;3.45;0.65;;;27.40;99.90;;;;;;5016988;28;20604;-65
2022/02/09 06:40:17;;;;;;;4.38;0.80;;;27.40;99.90;;;;;;5008730;28;20073;-65
2022/02/09 06:42:45;;;;;;;3.63;0.80;;;27.40;99.90;;;;;;5000640;28;20029;-65
2022/02/09 06:45:32;;;;;;;2.35;0.45;;;27.40;99.90;;;;;;5021250;28;20402;-65
2022/02/09 06:48:00;;;;;;;12.70;1.00;;;27.40;99.90;;;;;;5018913;28;20022;-65
2022/02/09 06:50:38;;;;;;;5.55;0.80;;;27.40;99.90;;;;;;5006470;28;20438;-64
2022/02/09 06:53:25;;;;;;;3.17;0.70;;;27.40;99.90;;;;;;5004034;28;20040;-64
2022/02/09 06:55:59;;;;;;;1.92;0.68;;;27.30;99.90;;;;;;5029715;28;20036;-64
2022/02/09 07:01:07;;;;;;;1.95;0.50;;;27.20;99.90;;;;;;5019545;28;20037;-64
2022/02/09 07:03:35;;;;;;;3.38;0.82;;;27.30;99.90;;;;;;5028617;28;20079;-65
2022/02/09 07:06:02;;;;;;;2.63;0.75;;;27.30;99.90;;;;;;5021247;28;20136;-64
2022/02/09 07:08:30;;;;;;;4.60;0.60;;;27.20;99.90;;;;;;5027184;28;20104;-64
2022/02/09 07:10:57;;;;;;;2.60;1.15;;;27.00;99.90;;;;;;5040790;28;20025;-64
2022/02/09 07:13:24;;;;;;;3.90;0.75;;;27.10;99.90;;;;;;5021002;28;20026;-64
2022/02/09 07:15:54;;;;;;;3.83;0.80;;;27.00;99.90;;;;;;4997516;28;20022;-64
2022/02/09 07:18:24;;;;;;;2.10;0.63;;;26.90;99.90;;;;;;5008830;28;20495;-64
2022/02/09 07:23:29;;;;;;;4.25;0.70;;;26.70;99.60;;;;;;5019543;28;20030;-65
2022/02/09 07:26:06;;;;;;;2.88;0.30;;;26.70;99.90;;;;;;5017515;28;20033;-62
2022/02/09 07:28:35;;;;;;;2.35;0.55;;;26.70;99.20;;;;;;5007141;28;20042;-65
2022/02/09 07:31:04;;;;;;;4.47;0.50;;;26.70;99.20;;;;;;4999408;28;20096;-65
2022/02/09 07:33:31;;;;;;;2.42;0.52;;;27.10;98.90;;;;;;5018300;28;20399;-65
2022/02/09 07:35:58;;;;;;;1.98;0.70;;;27.00;99.00;;;;;;5017867;28;20026;-65
2022/02/09 07:38:26;;;;;;;1.70;0.40;;;26.80;99.10;;;;;;5015444;28;20040;-65
2022/02/09 07:40:57;;;;;;;1.55;0.30;;;26.70;98.90;;;;;;5018510;28;20092;-65
2022/02/09 07:46:27;;;;;;;3.83;0.50;;;26.60;99.90;;;;;;5017231;28;20041;-65
2022/02/09 07:54:00;;;;;;;3.67;0.60;;;26.40;99.60;;;;;;5006504;28;20058;-65
2022/02/09 07:56:30;;;;;;;3.58;0.50;;;26.40;99.60;;;;;;5000396;28;20121;-65
2022/02/09 07:58:58;;;;;;;1.65;0.45;;;26.30;99.90;;;;;;5016810;28;20104;-65
2022/02/09 08:01:25;;;;;;;3.80;1.00;;;26.30;99.90;;;;;;5004162;28;20026;-65
2022/02/09 08:03:53;;;;;;;5.00;0.80;;;26.30;99.90;;;;;;5016841;28;20033;-65
2022/02/09 08:06:24;;;;;;;7.38;0.77;;;26.30;99.90;;;;;;5030815;28;20041;-65
2022/02/09 08:09:04;;;;;;;3.75;0.80;;;26.20;99.90;;;;;;5014931;28;20029;-65
2022/02/09 08:11:49;;;;;;;4.55;1.00;;;26.10;99.90;;;;;;4998370;28;20069;-65
2022/02/09 08:31:01;;;;;;;4.72;0.95;;;25.80;99.90;;;;;;5023548;28;20038;-64
2022/02/09 08:33:28;;;;;;;2.03;0.47;;;25.80;99.90;;;;;;5030918;28;20483;-64
2022/02/09 08:35:57;;;;;;;5.07;0.90;;;25.70;99.90;;;;;;5036076;28;20029;-64
2022/02/09 08:38:29;;;;;;;3.85;0.90;;;25.60;99.90;;;;;;5035209;28;20021;-64
2022/02/09 08:40:57;;;;;;;6.20;1.20;;;25.50;99.90;;;;;;5018579;28;20109;-64
2022/02/09 08:43:24;;;;;;;4.00;0.70;;;25.50;99.90;;;;;;5023971;28;20029;-64
2022/02/09 08:45:52;;;;;;;3.17;0.90;;;25.40;99.90;;;;;;5018921;28;20030;-64
2022/02/09 08:48:21;;;;;;;4.78;0.80;;;25.40;99.90;;;;;;5013865;28;20030;-64
2022/02/09 08:50:52;;;;;;;3.42;0.85;;;25.30;99.90;;;;;;5014745;28;20387;-64
2022/02/09 08:53:21;;;;;;;4.53;0.80;;;25.20;99.90;;;;;;5015452;28;20036;-64
2022/02/09 08:55:48;;;;;;;7.18;0.98;;;25.20;99.90;;;;;;5016001;28;20510;-64
2022/02/09 08:58:19;;;;;;;6.93;1.38;;;25.20;99.90;;;;;;5016110;28;20033;-64
2022/02/09 09:00:48;;;;;;;4.07;1.30;;;25.10;99.90;;;;;;5015051;28;20026;-64
2022/02/09 09:03:20;;;;;;;4.85;1.00;;;25.10;99.90;;;;;;5016158;28;20048;-64
2022/02/09 09:05:50;;;;;;;4.95;1.25;;;25.00;99.90;;;;;;5016443;28;20037;-64
2022/02/09 10:01:14;;;;;;;3.88;0.88;;;24.10;99.90;;;;;;4995538;28;20598;-63
2022/02/09 10:34:27;;;;;;;3.40;0.80;;;24.10;99.90;;;;;;5009005;28;20057;-64
2022/02/09 10:37:04;;;;;;;3.30;1.13;;;24.10;99.90;;;;;;5009064;28;20026;-66
2022/02/09 10:39:44;;;;;;;3.67;0.80;;;24.10;99.90;;;;;;4991258;28;20057;-65
2022/02/09 10:44:53;;;;;;;2.95;0.90;;;24.10;99.90;;;;;;5010451;28;20034;-64
2022/02/09 10:47:34;;;;;;;3.17;0.60;;;24.10;99.90;;;;;;5006758;28;20081;-64
2022/02/09 10:52:59;;;;;;;4.70;0.80;;;24.10;99.90;;;;;;5006504;28;20061;-64
2022/02/09 10:55:35;;;;;;;2.60;0.60;;;24.00;99.90;;;;;;4990519;28;20395;-64
2022/02/09 10:58:08;;;;;;;3.20;0.80;;;23.90;99.90;;;;;;5010858;28;20032;-64
2022/02/09 11:00:37;;;;;;;4.38;0.70;;;23.80;99.90;;;;;;5009942;28;20029;-64
2022/02/09 11:03:04;;;;;;;3.00;0.63;;;23.70;99.90;;;;;;5012884;28;20030;-65
2022/02/09 11:05:32;;;;;;;5.35;0.80;;;23.60;99.90;;;;;;5008812;28;20088;-65
2022/02/09 11:07:59;;;;;;;4.50;0.57;;;23.50;99.90;;;;;;5004138;28;20574;-64
2022/02/09 11:10:27;;;;;;;3.45;0.65;;;23.50;99.90;;;;;;5004479;28;20125;-65
2022/02/09 11:12:56;;;;;;;0.85;0.38;;;23.50;99.90;;;;;;5004756;28;20023;-65
2022/02/09 11:15:25;;;;;;;1.90;0.88;;;23.40;99.90;;;;;;5010754;28;20026;-66
2022/02/09 11:17:53;;;;;;;2.10;0.60;;;23.40;99.90;;;;;;5011614;28;20037;-66
2022/02/09 11:20:28;;;;;;;2.00;0.55;;;23.30;99.90;;;;;;5014210;28;20076;-66
2022/02/09 11:22:56;;;;;;;1.17;0.50;;;23.30;99.90;;;;;;5014584;28;20022;-67
2022/02/09 11:25:32;;;;;;;1.48;0.50;;;23.30;99.90;;;;;;5009164;28;20030;-66
2022/02/09 11:28:28;;;;;;;3.67;0.63;;;23.30;99.90;;;;;;4999915;28;20367;-66
2022/02/09 11:31:17;;;;;;;2.55;0.40;;;23.30;99.90;;;;;;5011253;28;20038;-66
2022/02/09 11:34:01;;;;;;;5.40;0.77;;;23.20;99.90;;;;;;4996050;28;20046;-66
2022/02/09 11:41:50;;;;;;;2.33;0.60;;;23.30;99.90;;;;;;5013072;28;20461;-66
2022/02/09 11:45:01;;;;;;;3.67;0.50;;;23.40;99.90;;;;;;5012974;28;20453;-65
2022/02/09 11:58:54;;;;;;;5.60;0.95;;;23.20;99.90;;;;;;5013346;28;20445;-65
2022/02/09 12:10:13;;;;;;;3.60;0.65;;;23.00;99.90;;;;;;5009642;28;20041;-66
2022/02/09 12:13:04;;;;;;;2.15;0.40;;;23.00;99.90;;;;;;4995895;28;20030;-66
2022/02/09 12:16:31;;;;;;;2.58;0.50;;;22.90;99.90;;;;;;5007825;28;20121;-67
2022/02/09 12:18:38;;;;;;;3.35;0.60;;;22.90;99.90;;;;;;5003836;28;20101;-66
2022/02/09 12:21:16;;;;;;;2.88;0.60;;;22.90;99.90;;;;;;4994110;28;20117;-66
2022/02/09 12:23:47;;;;;;;2.20;0.60;;;22.80;99.90;;;;;;4994470;28;20486;-66
2022/02/09 12:26:22;;;;;;;4.18;0.98;;;22.80;99.90;;;;;;5014597;28;20034;-66
2022/02/09 12:28:59;;;;;;;2.63;0.50;;;22.80;99.90;;;;;;4994587;28;20041;-66
2022/02/09 12:31:32;;;;;;;3.28;0.60;;;22.80;99.90;;;;;;5009080;28;20442;-66
2022/02/09 12:34:01;;;;;;;8.48;1.15;;;22.80;99.90;;;;;;5006995;28;20478;-65
2022/02/09 12:36:33;;;;;;;3.35;0.52;;;22.80;99.90;;;;;;5012661;28;20057;-65
2022/02/09 12:39:04;;;;;;;5.22;0.77;;;22.70;99.90;;;;;;5010780;28;20072;-65
2022/02/09 12:41:33;;;;;;;2.38;0.75;;;22.70;99.90;;;;;;5011822;28;20073;-66
2022/02/09 12:44:04;;;;;;;6.70;0.93;;;22.70;99.90;;;;;;4993540;28;20034;-66
2022/02/09 12:46:44;;;;;;;3.70;1.00;;;22.70;99.90;;;;;;5011346;28;20032;-65
2022/02/09 12:49:15;;;;;;;1.67;0.32;;;22.70;99.90;;;;;;5011271;28;20442;-66
2022/02/09 12:51:45;;;;;;;1.77;0.45;;;22.70;99.90;;;;;;5010062;28;20023;-66
2022/02/09 12:54:15;;;;;;;2.00;0.43;;;22.70;99.90;;;;;;5010964;28;20053;-65
2022/02/09 12:56:47;;;;;;;3.25;0.50;;;22.70;99.90;;;;;;4994820;28;20033;-65
2022/02/09 12:59:17;;;;;;;3.13;0.77;;;22.70;99.90;;;;;;5009409;28;20069;-66
2022/02/09 13:01:51;;;;;;;5.50;0.80;;;22.80;99.90;;;;;;5006952;28;20030;-66
2022/02/09 13:04:47;;;;;;;4.35;0.98;;;22.70;99.90;;;;;;5014960;28;20041;-66
2022/02/09 13:07:18;;;;;;;2.83;0.70;;;22.70;99.90;;;;;;5004049;28;20421;-65
2022/02/09 13:09:53;;;;;;;2.55;0.70;;;22.60;99.90;;;;;;4990887;28;20432;-66
2022/02/09 13:12:28;;;;;;;5.30;1.40;;;22.60;99.90;;;;;;5010615;28;20030;-66
2022/02/09 13:15:09;;;;;;;2.17;0.50;;;22.60;99.90;;;;;;5011662;28;20030;-66
2022/02/09 13:18:12;;;;;;;4.72;0.95;;;22.60;99.90;;;;;;5010101;28;20493;-66
2022/02/09 14:48:52;;;;;;;3.63;1.35;;;21.30;99.90;;;;;;5011953;28;20057;-66
2022/02/09 14:58:30;;;;;;;3.80;0.95;;;21.20;99.90;;;;;;5012938;28;20022;-66
2022/02/09 15:01:12;;;;;;;3.80;1.00;;;21.20;99.90;;;;;;5005236;28;20152;-66
2022/02/09 15:04:06;;;;;;;10.88;1.33;;;21.20;99.90;;;;;;5012684;28;20029;-66
2022/02/09 15:09:35;;;;;;;4.20;1.27;;;21.20;99.90;;;;;;5016159;28;20060;-66
2022/02/09 15:12:30;;;;;;;4.18;0.90;;;21.10;99.90;;;;;;5013971;28;20030;-66
2022/02/09 15:15:08;;;;;;;3.25;1.02;;;21.10;99.90;;;;;;5008187;28;20394;-64
2022/02/09 15:18:15;;;;;;;2.42;1.05;;;21.10;99.90;;;;;;5011600;28;20073;-64
2022/02/09 15:21:01;;;;;;;2.75;1.00;;;21.10;99.90;;;;;;5005853;28;20498;-63
2022/02/09 15:23:29;;;;;;;3.47;1.35;;;21.10;99.90;;;;;;5005381;28;20029;-64
2022/02/09 15:26:00;;;;;;;3.35;1.15;;;21.00;99.90;;;;;;5014578;28;20030;-64
2022/02/09 15:28:27;;;;;;;2.30;0.80;;;21.10;99.90;;;;;;5012469;28;20710;-64
2022/02/09 15:32:00;;;;;;;2.42;0.70;;;21.00;99.90;;;;;;5014035;28;20034;-64
2022/02/09 15:34:02;;;;;;;4.22;1.17;;;21.00;99.90;;;;;;4995662;28;20120;-64
2022/02/09 15:39:16;;;;;;;1.83;0.60;;;21.00;99.90;;;;;;5013598;28;20037;-64
2022/02/09 15:58:35;;;;;;;4.50;0.80;;;20.80;99.90;;;;;;5013198;28;20092;-64
2022/02/09 16:08:02;;;;;;;3.28;0.77;;;20.80;99.90;;;;;;5013137;28;20087;-64
2022/02/09 16:45:00;;;;;;;5.72;1.25;;;20.40;99.90;;;;;;5004859;28;20061;-65
2022/02/09 16:50:00;;;;;;;2.08;0.50;;;20.50;99.90;;;;;;5011527;28;20473;-64
2022/02/09 16:52:43;;;;;;;5.05;0.88;;;20.40;99.90;;;;;;5011426;28;20496;-64
2022/02/09 17:19:45;;;;;;;4.80;0.73;;;20.60;99.90;;;;;;5013776;28;20053;-65
2022/02/09 17:22:12;;;;;;;2.95;0.88;;;20.50;99.90;;;;;;5008893;28;20034;-65
2022/02/09 17:24:40;;;;;;;4.72;1.08;;;20.50;99.90;;;;;;5011783;28;20037;-65
2022/02/09 17:27:15;;;;;;;3.70;1.00;;;20.50;99.90;;;;;;4997591;28;20030;-65
2022/02/09 17:30:06;;;;;;;4.32;1.00;;;20.40;99.90;;;;;;5010891;28;20477;-65
2022/02/09 17:35:29;;;;;;;4.45;0.88;;;20.40;99.90;;;;;;4980482;28;20037;-64
2022/02/09 17:57:03;;;;;;;2.50;1.10;;;20.70;99.90;;;;;;5011870;28;20505;-65
2022/02/09 17:59:32;;;;;;;6.63;1.20;;;20.80;99.90;;;;;;5010242;28;20068;-65
2022/02/09 18:01:59;;;;;;;9.63;1.30;;;20.80;99.90;;;;;;5011809;28;20064;-64
2022/02/09 18:04:27;;;;;;;4.50;1.02;;;20.80;99.90;;;;;;5006766;28;20030;-65
2022/02/09 18:07:00;;;;;;;8.38;1.40;;;20.80;99.90;;;;;;4998077;28;20036;-65
2022/02/09 18:09:40;;;;;;;4.05;1.73;;;20.70;99.90;;;;;;5012471;28;20097;-65
2022/02/09 18:12:27;;;;;;;5.95;0.88;;;20.70;99.90;;;;;;5011098;28;20501;-65
2022/02/09 18:31:37;;;;;;;4.63;1.15;;;20.20;99.90;;;;;;5001113;28;20074;-64
2022/02/09 18:34:18;;;;;;;6.15;1.38;;;20.00;99.90;;;;;;5008845;28;20046;-64
2022/02/09 18:44:43;;;;;;;5.18;1.35;;;19.90;99.90;;;;;;5013247;28;20037;-64
2022/02/09 19:01:20;;;;;;;4.97;1.13;;;19.70;99.90;;;;;;5013342;28;20445;-64
2022/02/09 19:06:44;;;;;;;4.32;1.00;;;19.90;99.90;;;;;;5013491;28;20069;-64
2022/02/09 19:16:59;;;;;;;5.47;1.48;;;19.90;99.90;;;;;;5014561;28;20049;-65
2022/02/09 19:30:04;;;;;;;8.52;1.60;;;19.90;99.90;;;;;;4996476;28;20501;-65
2022/02/09 19:41:28;;;;;;;5.60;1.80;;;19.50;99.90;;;;;;5018094;28;20496;-64
2022/02/09 19:54:43;;;;;;;4.88;1.20;;;19.50;99.90;;;;;;5013036;28;20030;-64
2022/02/09 19:57:12;;;;;;;3.70;1.10;;;19.50;99.90;;;;;;5013178;28;20038;-64
2022/02/09 19:59:40;;;;;;;5.05;1.20;;;19.60;99.90;;;;;;5013386;28;20030;-64
2022/02/09 20:02:10;;;;;;;6.07;1.55;;;19.60;99.90;;;;;;5013667;28;20033;-64
2022/02/09 20:04:38;;;;;;;2.92;1.10;;;19.60;99.90;;;;;;5013437;28;20493;-64
2022/02/09 20:07:08;;;;;;;7.93;1.75;;;19.60;99.90;;;;;;4994678;28;20031;-64
2022/02/09 20:09:36;;;;;;;8.23;2.33;;;19.60;99.90;;;;;;5009786;28;20058;-64
2022/02/09 20:12:04;;;;;;;2.40;0.90;;;19.60;99.90;;;;;;5003972;28;20065;-64
2022/02/09 20:14:31;;;;;;;9.50;1.23;;;19.70;99.90;;;;;;5010870;28;20030;-64
2022/02/09 20:16:59;;;;;;;6.53;1.20;;;19.80;99.90;;;;;;5013693;28;20045;-64
2022/02/09 20:19:26;;;;;;;3.88;1.15;;;19.80;99.90;;;;;;5010255;28;20040;-64
2022/02/09 20:21:53;;;;;;;5.38;1.45;;;19.80;99.90;;;;;;5014260;28;20057;-64
2022/02/09 20:24:20;;;;;;;4.72;1.30;;;19.90;99.90;;;;;;5009873;28;20030;-65
2022/02/09 20:26:51;;;;;;;7.18;1.30;;;20.00;99.90;;;;;;5013041;28;20026;-64
2022/02/09 20:29:28;;;;;;;5.63;1.33;;;19.90;99.90;;;;;;5009151;28;20121;-65
2022/02/09 20:32:13;;;;;;;5.70;1.20;;;20.00;99.90;;;;;;5006337;28;20120;-64
2022/02/09 20:34:51;;;;;;;4.15;1.40;;;20.10;99.90;;;;;;5013973;28;20034;-65
2022/02/09 20:37:19;;;;;;;6.18;1.58;;;20.20;99.90;;;;;;5007835;28;20064;-65
2022/02/09 20:40:03;;;;;;;2.67;1.10;;;20.20;99.90;;;;;;5012763;28;20413;-65
2022/02/09 20:42:30;;;;;;;8.95;1.20;;;20.30;99.90;;;;;;5003967;28;20042;-65
2022/02/09 20:45:26;;;;;;;4.28;1.10;;;20.40;99.90;;;;;;5002562;28;20042;-65
2022/02/09 20:47:46;;;;;;;6.82;1.30;;;20.40;99.90;;;;;;5005733;28;20030;-65
2022/02/09 20:50:13;;;;;;;9.10;1.30;;;20.50;99.90;;;;;;5013645;28;20490;-65
2022/02/09 20:52:41;;;;;;;6.13;1.45;;;20.60;99.90;;;;;;5002158;28;20698;-65
2022/02/09 20:55:08;;;;;;;3.13;1.00;;;20.70;99.90;;;;;;5006289;28;20518;-65
2022/02/09 20:57:37;;;;;;;6.30;1.55;;;20.70;99.90;;;;;;5005516;28;20025;-64
2022/02/09 21:00:09;;;;;;;6.32;1.23;;;20.80;99.90;;;;;;5011155;28;20116;-65
2022/02/09 21:02:48;;;;;;;2.92;0.90;;;20.90;99.90;;;;;;5010175;28;20057;-66
2022/02/09 21:05:35;;;;;;;5.20;1.10;;;20.90;99.90;;;;;;5000058;28;20034;-65
2022/02/09 21:10:46;;;;;;;3.90;1.30;;;21.00;99.90;;;;;;5009307;28;20108;-65
2022/02/09 21:13:44;;;;;;;7.20;0.85;;;21.10;99.90;;;;;;5008985;28;20105;-63
2022/02/09 21:45:30;;;;;;;4.13;1.40;;;21.90;99.90;;;;;;5015740;28;20057;-64
2022/02/09 21:56:02;;;;;;;6.68;1.65;;;22.30;99.90;;;;;;5014579;28;20046;-64
2022/02/09 21:58:49;;;;;;;5.60;1.48;;;22.40;99.90;;;;;;5011432;28;20038;-64
2022/02/09 22:16:16;;;;;;;3.33;1.35;;;22.90;99.90;;;;;;5012059;28;20059;-64
2022/02/09 22:23:32;;;;;;;4.25;1.35;;;23.60;99.90;;;;;;5011678;28;20062;-65
2022/02/09 22:28:28;;;;;;;7.07;1.02;;;23.90;99.90;;;;;;4999662;28;20033;-64
2022/02/09 22:50:08;;;;;;;5.95;1.17;;;24.70;99.90;;;;;;4998326;28;20038;-64
2022/02/09 22:55:16;;;;;;;5.75;1.48;;;25.10;99.90;;;;;;5012936;28;20041;-64
2022/02/09 22:57:51;;;;;;;5.45;1.52;;;25.10;99.90;;;;;;5010697;28;20394;-64
2022/02/09 23:03:23;;;;;;;16.23;5.55;;;25.20;99.90;;;;;;5004366;28;20056;-64
2022/02/09 23:13:46;;;;;;;5.32;1.70;;;25.60;99.90;;;;;;5009894;28;20041;-64
